sensor_id;sensor_type;location;lat;lon;timestamp;temperature;humidity
31309;DHT22;17936;52.446;10.840;2022-12-13T00:00:08;-6.00;99.90
31309;DHT22;17936;52.446;10.840;2022-12-13T00:02:38;-6.00;99.90
31309;DHT22;17936;52.446;10.840;2022-12-13T00:05:04;-6.10;99.90
31309;DHT22;17936;52.446;10.840;2022-12-13T00:07:29;-6.10;99.90
31309;DHT22;17936;52.446;10.840;2022-12-13T00:09:55;-6.10;99.90
31309;DHT22;17936;52.446;10.840;2022-12-13T00:12:20;-6.10;99.90
31309;DHT22;17936;52.446;10.840;2022-12-13T00:14:46;-6.40;99.90
31309;DHT22;17936;52.446;10.840;2022-12-13T00:17:11;-6.30;99.90
31309;DHT22;17936;52.446;10.840;2022-12-13T00:19:37;-6.30;99.90
31309;DHT22;17936;52.446;10.840;2022-12-13T00:22:02;-6.30;99.90
31309;DHT22;17936;52.446;10.840;2022-12-13T00:24:28;-6.30;99.90
31309;DHT22;17936;52.446;10.840;2022-12-13T00:26:54;-6.30;99.90
31309;DHT22;17936;52.446;10.840;2022-12-13T00:29:20;-6.20;99.90
31309;DHT22;17936;52.446;10.840;2022-12-13T00:31:45;-6.30;99.90
31309;DHT22;17936;52.446;10.840;2022-12-13T00:34:11;-6.30;99.90
31309;DHT22;17936;52.446;10.840;2022-12-13T00:36:36;-6.50;99.90
31309;DHT22;17936;52.446;10.840;2022-12-13T00:39:02;-6.50;99.90
31309;DHT22;17936;52.446;10.840;2022-12-13T00:41:34;-6.40;99.90
31309;DHT22;17936;52.446;10.840;2022-12-13T00:44:01;-6.40;99.90
31309;DHT22;17936;52.446;10.840;2022-12-13T00:46:28;-6.40;99.90
31309;DHT22;17936;52.446;10.840;2022-12-13T00:48:56;-6.50;99.90
31309;DHT22;17936;52.446;10.840;2022-12-13T00:51:22;-6.50;99.90
31309;DHT22;17936;52.446;10.840;2022-12-13T00:53:48;-6.50;99.90
31309;DHT22;17936;52.446;10.840;2022-12-13T00:56:17;-6.50;99.90
31309;DHT22;17936;52.446;10.840;2022-12-13T00:58:44;-6.50;99.90
31309;DHT22;17936;52.446;10.840;2022-12-13T01:01:15;-6.40;99.90
31309;DHT22;17936;52.446;10.840;2022-12-13T01:03:41;-6.40;99.90
31309;DHT22;17936;52.446;10.840;2022-12-13T01:06:11;-6.40;99.90
31309;DHT22;17936;52.446;10.840;2022-12-13T01:08:37;-6.40;99.90
31309;DHT22;17936;52.446;10.840;2022-12-13T01:11:03;-6.50;99.90
31309;DHT22;17936;52.446;10.840;2022-12-13T01:13:29;-6.60;99.90
31309;DHT22;17936;52.446;10.840;2022-12-13T01:15:54;-6.50;99.90
31309;DHT22;17936;52.446;10.840;2022-12-13T01:18:20;-6.60;99.90
31309;DHT22;17936;52.446;10.840;2022-12-13T01:21:13;-6.70;99.90
31309;DHT22;17936;52.446;10.840;2022-12-13T01:23:40;-6.80;99.90
31309;DHT22;17936;52.446;10.840;2022-12-13T01:26:09;-6.70;99.90
31309;DHT22;17936;52.446;10.840;2022-12-13T01:28:35;-6.70;99.90
31309;DHT22;17936;52.446;10.840;2022-12-13T01:31:07;-6.80;99.90
31309;DHT22;17936;52.446;10.840;2022-12-13T01:33:33;-6.90;99.90
31309;DHT22;17936;52.446;10.840;2022-12-13T01:36:04;-7.00;99.90
31309;DHT22;17936;52.446;10.840;2022-12-13T01:38:31;-7.20;99.90
31309;DHT22;17936;52.446;10.840;2022-12-13T01:40:57;-7.00;99.90
31309;DHT22;17936;52.446;10.840;2022-12-13T01:43:25;-6.90;99.90
31309;DHT22;17936;52.446;10.840;2022-12-13T01:45:50;-6.80;99.90
31309;DHT22;17936;52.446;10.840;2022-12-13T01:48:22;-7.00;99.90
31309;DHT22;17936;52.446;10.840;2022-12-13T01:50:52;-6.90;99.90
31309;DHT22;17936;52.446;10.840;2022-12-13T01:53:22;-6.80;99.90
31309;DHT22;17936;52.446;10.840;2022-12-13T01:55:52;-6.80;99.90
31309;DHT22;17936;52.446;10.840;2022-12-13T01:58:19;-6.80;99.90
31309;DHT22;17936;52.446;10.840;2022-12-13T02:00:46;-6.90;99.90
31309;DHT22;17936;52.446;10.840;2022-12-13T02:03:13;-7.00;99.90
31309;DHT22;17936;52.446;10.840;2022-12-13T02:05:49;-6.80;99.90
31309;DHT22;17936;52.446;10.840;2022-12-13T02:08:17;-6.90;99.90
31309;DHT22;17936;52.446;10.840;2022-12-13T02:10:44;-6.90;99.90
31309;DHT22;17936;52.446;10.840;2022-12-13T02:13:10;-7.00;99.90
31309;DHT22;17936;52.446;10.840;2022-12-13T02:16:07;-7.00;99.90
31309;DHT22;17936;52.446;10.840;2022-12-13T02:19:14;-7.10;99.90
31309;DHT22;17936;52.446;10.840;2022-12-13T02:27:51;-7.10;99.90
31309;DHT22;17936;52.446;10.840;2022-12-13T02:30:38;-7.10;99.90
31309;DHT22;17936;52.446;10.840;2022-12-13T02:35:50;-7.10;99.90
31309;DHT22;17936;52.446;10.840;2022-12-13T02:38:28;-7.10;99.90
31309;DHT22;17936;52.446;10.840;2022-12-13T02:41:09;-7.10;99.90
31309;DHT22;17936;52.446;10.840;2022-12-13T02:43:58;-7.20;99.90
31309;DHT22;17936;52.446;10.840;2022-12-13T02:46:28;-7.30;99.90
31309;DHT22;17936;52.446;10.840;2022-12-13T02:48:56;-7.30;99.90
31309;DHT22;17936;52.446;10.840;2022-12-13T02:51:24;-7.30;99.90
31309;DHT22;17936;52.446;10.840;2022-12-13T02:53:50;-7.30;99.90
31309;DHT22;17936;52.446;10.840;2022-12-13T02:56:16;-7.10;99.90
31309;DHT22;17936;52.446;10.840;2022-12-13T02:58:46;-7.10;99.90
31309;DHT22;17936;52.446;10.840;2022-12-13T03:04:13;-7.40;99.90
31309;DHT22;17936;52.446;10.840;2022-12-13T03:06:59;-7.50;99.90
31309;DHT22;17936;52.446;10.840;2022-12-13T03:09:53;-7.30;99.90
31309;DHT22;17936;52.446;10.840;2022-12-13T03:13:00;-7.50;99.90
31309;DHT22;17936;52.446;10.840;2022-12-13T03:15:54;-7.30;99.90
31309;DHT22;17936;52.446;10.840;2022-12-13T03:18:23;-7.40;99.90
31309;DHT22;17936;52.446;10.840;2022-12-13T03:20:55;-7.30;99.90
31309;DHT22;17936;52.446;10.840;2022-12-13T03:23:22;-7.40;99.90
31309;DHT22;17936;52.446;10.840;2022-12-13T03:25:51;-7.40;99.90
31309;DHT22;17936;52.446;10.840;2022-12-13T03:28:18;-7.30;99.90
31309;DHT22;17936;52.446;10.840;2022-12-13T03:30:43;-7.30;99.90
31309;DHT22;17936;52.446;10.840;2022-12-13T03:33:09;-7.40;99.90
31309;DHT22;17936;52.446;10.840;2022-12-13T03:35:35;-7.50;99.90
31309;DHT22;17936;52.446;10.840;2022-12-13T03:38:01;-7.60;99.90
31309;DHT22;17936;52.446;10.840;2022-12-13T03:40:28;-7.80;99.90
31309;DHT22;17936;52.446;10.840;2022-12-13T03:42:54;-7.80;99.90
31309;DHT22;17936;52.446;10.840;2022-12-13T03:45:20;-8.00;99.90
31309;DHT22;17936;52.446;10.840;2022-12-13T03:47:46;-7.90;99.90
31309;DHT22;17936;52.446;10.840;2022-12-13T03:50:11;-7.80;99.90
31309;DHT22;17936;52.446;10.840;2022-12-13T03:52:37;-8.10;99.90
31309;DHT22;17936;52.446;10.840;2022-12-13T03:55:02;-7.70;99.90
31309;DHT22;17936;52.446;10.840;2022-12-13T03:57:28;-7.80;99.90
31309;DHT22;17936;52.446;10.840;2022-12-13T03:59:53;-8.00;99.90
31309;DHT22;17936;52.446;10.840;2022-12-13T04:02:19;-7.90;99.90
31309;DHT22;17936;52.446;10.840;2022-12-13T04:04:44;-8.20;99.90
31309;DHT22;17936;52.446;10.840;2022-12-13T04:07:10;-7.90;99.90
31309;DHT22;17936;52.446;10.840;2022-12-13T04:09:35;-7.80;99.90
31309;DHT22;17936;52.446;10.840;2022-12-13T04:12:01;-7.80;99.90
31309;DHT22;17936;52.446;10.840;2022-12-13T04:14:45;-7.70;99.90
31309;DHT22;17936;52.446;10.840;2022-12-13T04:17:10;-7.60;99.90
31309;DHT22;17936;52.446;10.840;2022-12-13T04:19:36;-7.60;99.90
31309;DHT22;17936;52.446;10.840;2022-12-13T04:22:01;-7.70;99.90
31309;DHT22;17936;52.446;10.840;2022-12-13T04:24:27;-7.60;99.90
31309;DHT22;17936;52.446;10.840;2022-12-13T04:26:52;-7.70;99.90
31309;DHT22;17936;52.446;10.840;2022-12-13T04:29:18;-7.80;99.90
31309;DHT22;17936;52.446;10.840;2022-12-13T04:31:43;-7.70;99.90
31309;DHT22;17936;52.446;10.840;2022-12-13T04:34:09;-7.70;99.90
31309;DHT22;17936;52.446;10.840;2022-12-13T04:36:34;-7.80;99.90
31309;DHT22;17936;52.446;10.840;2022-12-13T04:39:01;-7.60;99.90
31309;DHT22;17936;52.446;10.840;2022-12-13T04:41:27;-7.60;99.90
31309;DHT22;17936;52.446;10.840;2022-12-13T04:43:53;-7.70;99.90
31309;DHT22;17936;52.446;10.840;2022-12-13T04:46:20;-7.60;99.90
31309;DHT22;17936;52.446;10.840;2022-12-13T04:48:46;-7.60;99.90
31309;DHT22;17936;52.446;10.840;2022-12-13T04:51:12;-7.60;99.90
31309;DHT22;17936;52.446;10.840;2022-12-13T04:53:37;-7.60;99.90
31309;DHT22;17936;52.446;10.840;2022-12-13T04:56:04;-7.60;99.90
31309;DHT22;17936;52.446;10.840;2022-12-13T04:58:30;-7.70;99.90
31309;DHT22;17936;52.446;10.840;2022-12-13T05:00:55;-7.80;99.90
31309;DHT22;17936;52.446;10.840;2022-12-13T05:03:21;-7.70;99.90
31309;DHT22;17936;52.446;10.840;2022-12-13T05:05:47;-7.70;99.90
31309;DHT22;17936;52.446;10.840;2022-12-13T05:08:12;-7.80;99.90
31309;DHT22;17936;52.446;10.840;2022-12-13T05:10:38;-7.70;99.90
31309;DHT22;17936;52.446;10.840;2022-12-13T05:13:04;-7.90;99.90
31309;DHT22;17936;52.446;10.840;2022-12-13T05:15:30;-7.80;99.90
31309;DHT22;17936;52.446;10.840;2022-12-13T05:18:00;-7.90;99.90
31309;DHT22;17936;52.446;10.840;2022-12-13T05:20:26;-7.80;99.90
31309;DHT22;17936;52.446;10.840;2022-12-13T05:22:54;-7.70;99.90
31309;DHT22;17936;52.446;10.840;2022-12-13T05:25:21;-7.80;99.90
31309;DHT22;17936;52.446;10.840;2022-12-13T05:27:47;-7.80;99.90
31309;DHT22;17936;52.446;10.840;2022-12-13T05:30:12;-7.90;99.90
31309;DHT22;17936;52.446;10.840;2022-12-13T05:32:38;-7.90;99.90
31309;DHT22;17936;52.446;10.840;2022-12-13T05:35:04;-7.90;99.90
31309;DHT22;17936;52.446;10.840;2022-12-13T05:37:30;-8.10;99.90
31309;DHT22;17936;52.446;10.840;2022-12-13T05:39:55;-8.10;99.90
31309;DHT22;17936;52.446;10.840;2022-12-13T05:42:21;-7.90;99.90
31309;DHT22;17936;52.446;10.840;2022-12-13T05:44:46;-8.00;99.90
31309;DHT22;17936;52.446;10.840;2022-12-13T05:47:12;-8.20;99.90
31309;DHT22;17936;52.446;10.840;2022-12-13T05:49:37;-8.20;99.90
31309;DHT22;17936;52.446;10.840;2022-12-13T05:52:03;-8.30;99.90
31309;DHT22;17936;52.446;10.840;2022-12-13T05:54:28;-8.10;99.90
31309;DHT22;17936;52.446;10.840;2022-12-13T05:56:54;-8.20;99.90
31309;DHT22;17936;52.446;10.840;2022-12-13T05:59:19;-8.30;99.90
31309;DHT22;17936;52.446;10.840;2022-12-13T06:01:45;-8.30;99.90
31309;DHT22;17936;52.446;10.840;2022-12-13T06:04:11;-8.30;99.90
31309;DHT22;17936;52.446;10.840;2022-12-13T06:06:37;-8.20;99.90
31309;DHT22;17936;52.446;10.840;2022-12-13T06:09:03;-8.30;99.90
31309;DHT22;17936;52.446;10.840;2022-12-13T06:11:28;-8.30;99.90
31309;DHT22;17936;52.446;10.840;2022-12-13T06:13:54;-8.60;99.90
31309;DHT22;17936;52.446;10.840;2022-12-13T06:16:19;-8.80;99.90
31309;DHT22;17936;52.446;10.840;2022-12-13T06:18:45;-8.40;99.90
31309;DHT22;17936;52.446;10.840;2022-12-13T06:21:10;-8.50;99.90
31309;DHT22;17936;52.446;10.840;2022-12-13T06:23:36;-8.60;99.90
31309;DHT22;17936;52.446;10.840;2022-12-13T06:26:05;-8.60;99.90
31309;DHT22;17936;52.446;10.840;2022-12-13T06:28:31;-8.50;99.90
31309;DHT22;17936;52.446;10.840;2022-12-13T06:31:01;-8.60;99.90
31309;DHT22;17936;52.446;10.840;2022-12-13T06:33:27;-8.70;99.90
31309;DHT22;17936;52.446;10.840;2022-12-13T06:35:56;-8.80;99.90
31309;DHT22;17936;52.446;10.840;2022-12-13T06:38:22;-8.60;99.90
31309;DHT22;17936;52.446;10.840;2022-12-13T06:40:48;-8.50;99.90
31309;DHT22;17936;52.446;10.840;2022-12-13T06:43:13;-8.70;99.90
31309;DHT22;17936;52.446;10.840;2022-12-13T06:45:39;-8.50;99.90
31309;DHT22;17936;52.446;10.840;2022-12-13T06:48:07;-8.50;99.90
31309;DHT22;17936;52.446;10.840;2022-12-13T06:50:32;-8.30;99.90
31309;DHT22;17936;52.446;10.840;2022-12-13T06:52:58;-8.20;99.90
31309;DHT22;17936;52.446;10.840;2022-12-13T06:55:23;-8.20;99.90
31309;DHT22;17936;52.446;10.840;2022-12-13T06:57:49;-8.20;99.90
31309;DHT22;17936;52.446;10.840;2022-12-13T07:00:15;-8.20;99.90
31309;DHT22;17936;52.446;10.840;2022-12-13T07:02:40;-8.30;99.90
31309;DHT22;17936;52.446;10.840;2022-12-13T07:05:06;-8.30;99.90
31309;DHT22;17936;52.446;10.840;2022-12-13T07:07:32;-8.50;99.90
31309;DHT22;17936;52.446;10.840;2022-12-13T07:09:57;-8.30;99.90
31309;DHT22;17936;52.446;10.840;2022-12-13T07:12:23;-8.30;99.90
31309;DHT22;17936;52.446;10.840;2022-12-13T07:14:48;-8.30;99.90
31309;DHT22;17936;52.446;10.840;2022-12-13T07:17:14;-8.30;99.90
31309;DHT22;17936;52.446;10.840;2022-12-13T07:19:40;-8.20;99.90
31309;DHT22;17936;52.446;10.840;2022-12-13T07:22:05;-8.50;99.90
31309;DHT22;17936;52.446;10.840;2022-12-13T07:24:32;-8.30;99.90
31309;DHT22;17936;52.446;10.840;2022-12-13T07:26:58;-8.30;99.90
31309;DHT22;17936;52.446;10.840;2022-12-13T07:29:23;-8.30;99.90
31309;DHT22;17936;52.446;10.840;2022-12-13T07:31:49;-8.10;99.90
31309;DHT22;17936;52.446;10.840;2022-12-13T07:34:14;-8.10;99.90
31309;DHT22;17936;52.446;10.840;2022-12-13T07:36:40;-8.30;99.90
31309;DHT22;17936;52.446;10.840;2022-12-13T07:39:05;-8.40;99.90
31309;DHT22;17936;52.446;10.840;2022-12-13T07:41:31;-8.30;99.90
31309;DHT22;17936;52.446;10.840;2022-12-13T07:43:57;-8.10;99.90
31309;DHT22;17936;52.446;10.840;2022-12-13T07:46:23;-8.30;99.90
31309;DHT22;17936;52.446;10.840;2022-12-13T07:48:49;-8.20;99.90
31309;DHT22;17936;52.446;10.840;2022-12-13T07:51:14;-8.10;99.90
31309;DHT22;17936;52.446;10.840;2022-12-13T07:53:40;-8.20;99.90
31309;DHT22;17936;52.446;10.840;2022-12-13T07:56:08;-8.30;99.90
31309;DHT22;17936;52.446;10.840;2022-12-13T07:58:34;-8.50;99.90
31309;DHT22;17936;52.446;10.840;2022-12-13T08:01:03;-8.60;99.90
31309;DHT22;17936;52.446;10.840;2022-12-13T08:03:29;-8.60;99.90
31309;DHT22;17936;52.446;10.840;2022-12-13T08:08:26;-8.50;99.90
31309;DHT22;17936;52.446;10.840;2022-12-13T08:10:51;-8.30;99.90
31309;DHT22;17936;52.446;10.840;2022-12-13T08:13:17;-8.10;99.90
31309;DHT22;17936;52.446;10.840;2022-12-13T08:15:42;-8.10;99.90
31309;DHT22;17936;52.446;10.840;2022-12-13T08:18:08;-8.20;99.90
31309;DHT22;17936;52.446;10.840;2022-12-13T08:20:33;-8.20;99.90
31309;DHT22;17936;52.446;10.840;2022-12-13T08:22:59;-8.10;99.90
31309;DHT22;17936;52.446;10.840;2022-12-13T08:25:25;-8.00;99.90
31309;DHT22;17936;52.446;10.840;2022-12-13T08:27:51;-7.90;99.90
31309;DHT22;17936;52.446;10.840;2022-12-13T08:30:17;-8.00;99.90
31309;DHT22;17936;52.446;10.840;2022-12-13T08:32:42;-7.80;99.90
31309;DHT22;17936;52.446;10.840;2022-12-13T08:35:08;-7.90;99.90
31309;DHT22;17936;52.446;10.840;2022-12-13T08:37:34;-7.70;99.90
31309;DHT22;17936;52.446;10.840;2022-12-13T08:39:59;-7.80;99.90
31309;DHT22;17936;52.446;10.840;2022-12-13T08:42:25;-7.70;99.90
31309;DHT22;17936;52.446;10.840;2022-12-13T08:44:52;-7.70;99.90
31309;DHT22;17936;52.446;10.840;2022-12-13T08:47:19;-7.70;99.90
31309;DHT22;17936;52.446;10.840;2022-12-13T08:49:44;-7.60;99.90
31309;DHT22;17936;52.446;10.840;2022-12-13T08:52:10;-7.70;99.90
31309;DHT22;17936;52.446;10.840;2022-12-13T08:54:35;-7.60;99.90
31309;DHT22;17936;52.446;10.840;2022-12-13T08:57:01;-7.50;99.90
31309;DHT22;17936;52.446;10.840;2022-12-13T08:59:26;-7.30;99.90
31309;DHT22;17936;52.446;10.840;2022-12-13T09:01:52;-7.40;99.90
31309;DHT22;17936;52.446;10.840;2022-12-13T09:04:17;-7.10;99.90
31309;DHT22;17936;52.446;10.840;2022-12-13T09:06:43;-6.60;99.90
31309;DHT22;17936;52.446;10.840;2022-12-13T09:09:08;-6.20;99.90
31309;DHT22;17936;52.446;10.840;2022-12-13T09:11:34;-6.20;99.90
31309;DHT22;17936;52.446;10.840;2022-12-13T09:13:59;-6.10;99.90
31309;DHT22;17936;52.446;10.840;2022-12-13T09:16:25;-6.00;99.90
31309;DHT22;17936;52.446;10.840;2022-12-13T09:18:53;-6.00;99.90
31309;DHT22;17936;52.446;10.840;2022-12-13T09:21:19;-5.80;99.90
31309;DHT22;17936;52.446;10.840;2022-12-13T09:23:45;-5.80;99.90
31309;DHT22;17936;52.446;10.840;2022-12-13T09:26:12;-5.50;99.90
31309;DHT22;17936;52.446;10.840;2022-12-13T09:28:39;-5.30;99.90
31309;DHT22;17936;52.446;10.840;2022-12-13T09:31:09;-5.10;99.90
31309;DHT22;17936;52.446;10.840;2022-12-13T09:33:36;-5.00;99.90
31309;DHT22;17936;52.446;10.840;2022-12-13T09:36:07;-4.90;99.90
31309;DHT22;17936;52.446;10.840;2022-12-13T09:38:34;-4.90;99.90
31309;DHT22;17936;52.446;10.840;2022-12-13T09:41:06;-4.80;99.90
31309;DHT22;17936;52.446;10.840;2022-12-13T09:43:33;-4.70;99.90
31309;DHT22;17936;52.446;10.840;2022-12-13T09:46:04;-4.70;99.90
31309;DHT22;17936;52.446;10.840;2022-12-13T09:48:31;-4.50;99.90
31309;DHT22;17936;52.446;10.840;2022-12-13T09:50:56;-4.80;99.90
31309;DHT22;17936;52.446;10.840;2022-12-13T09:53:22;-4.70;99.90
31309;DHT22;17936;52.446;10.840;2022-12-13T09:55:49;-4.70;99.90
31309;DHT22;17936;52.446;10.840;2022-12-13T09:58:20;-4.50;99.90
31309;DHT22;17936;52.446;10.840;2022-12-13T10:00:48;-4.10;99.90
31309;DHT22;17936;52.446;10.840;2022-12-13T10:03:15;-4.20;99.90
31309;DHT22;17936;52.446;10.840;2022-12-13T10:05:56;-4.50;99.90
31309;DHT22;17936;52.446;10.840;2022-12-13T10:08:51;-4.20;99.90
31309;DHT22;17936;52.446;10.840;2022-12-13T10:11:18;-4.10;99.90
31309;DHT22;17936;52.446;10.840;2022-12-13T10:13:53;-4.00;99.90
31309;DHT22;17936;52.446;10.840;2022-12-13T10:16:27;-3.80;99.90
31309;DHT22;17936;52.446;10.840;2022-12-13T10:18:55;-3.60;99.90
31309;DHT22;17936;52.446;10.840;2022-12-13T10:21:27;-3.60;99.90
31309;DHT22;17936;52.446;10.840;2022-12-13T10:24:11;-3.60;99.90
31309;DHT22;17936;52.446;10.840;2022-12-13T10:26:38;-3.40;99.90
31309;DHT22;17936;52.446;10.840;2022-12-13T10:29:04;-3.50;99.90
31309;DHT22;17936;52.446;10.840;2022-12-13T10:31:41;-3.00;99.90
31309;DHT22;17936;52.446;10.840;2022-12-13T10:36:43;-3.20;99.90
31309;DHT22;17936;52.446;10.840;2022-12-13T10:39:16;-3.30;99.90
31309;DHT22;17936;52.446;10.840;2022-12-13T10:41:42;-2.60;99.90
31309;DHT22;17936;52.446;10.840;2022-12-13T10:46:38;-2.70;99.90
31309;DHT22;17936;52.446;10.840;2022-12-13T10:49:20;-2.50;99.90
31309;DHT22;17936;52.446;10.840;2022-12-13T10:51:47;-2.30;99.90
31309;DHT22;17936;52.446;10.840;2022-12-13T10:54:35;-2.10;99.90
31309;DHT22;17936;52.446;10.840;2022-12-13T10:57:02;-2.00;99.90
31309;DHT22;17936;52.446;10.840;2022-12-13T10:59:36;-1.90;99.90
31309;DHT22;17936;52.446;10.840;2022-12-13T11:02:26;-1.60;99.90
31309;DHT22;17936;52.446;10.840;2022-12-13T11:04:52;-1.60;99.90
31309;DHT22;17936;52.446;10.840;2022-12-13T11:07:32;-1.60;99.90
31309;DHT22;17936;52.446;10.840;2022-12-13T11:10:16;-1.40;99.90
31309;DHT22;17936;52.446;10.840;2022-12-13T11:12:46;-1.40;99.90
31309;DHT22;17936;52.446;10.840;2022-12-13T11:15:21;-1.30;99.90
31309;DHT22;17936;52.446;10.840;2022-12-13T11:18:16;-1.10;99.90
31309;DHT22;17936;52.446;10.840;2022-12-13T11:20:59;-1.20;99.90
31309;DHT22;17936;52.446;10.840;2022-12-13T11:26:07;-1.00;99.90
31309;DHT22;17936;52.446;10.840;2022-12-13T11:28:58;-1.00;99.90
31309;DHT22;17936;52.446;10.840;2022-12-13T11:31:41;-1.00;99.90
31309;DHT22;17936;52.446;10.840;2022-12-13T11:39:59;-0.70;99.90
31309;DHT22;17936;52.446;10.840;2022-12-13T11:42:40;-0.90;99.90
31309;DHT22;17936;52.446;10.840;2022-12-13T11:45:23;-0.80;96.70
31309;DHT22;17936;52.446;10.840;2022-12-13T11:50:31;-0.50;95.40
31309;DHT22;17936;52.446;10.840;2022-12-13T11:53:16;-0.70;97.30
31309;DHT22;17936;52.446;10.840;2022-12-13T11:55:51;-0.80;94.90
31309;DHT22;17936;52.446;10.840;2022-12-13T11:58:20;-0.60;97.60
31309;DHT22;17936;52.446;10.840;2022-12-13T12:00:54;-0.60;97.70
31309;DHT22;17936;52.446;10.840;2022-12-13T12:03:45;-0.50;83.70
31309;DHT22;17936;52.446;10.840;2022-12-13T12:06:23;-0.50;86.70
31309;DHT22;17936;52.446;10.840;2022-12-13T12:09:01;-0.50;78.10
31309;DHT22;17936;52.446;10.840;2022-12-13T12:11:41;-0.40;85.00
31309;DHT22;17936;52.446;10.840;2022-12-13T12:17:02;-0.40;69.60
31309;DHT22;17936;52.446;10.840;2022-12-13T12:19:36;-0.60;67.70
31309;DHT22;17936;52.446;10.840;2022-12-13T12:22:28;-0.70;79.50
31309;DHT22;17936;52.446;10.840;2022-12-13T12:25:17;-0.70;89.80
31309;DHT22;17936;52.446;10.840;2022-12-13T12:28:16;-0.90;79.10
31309;DHT22;17936;52.446;10.840;2022-12-13T12:33:42;-0.90;80.00
31309;DHT22;17936;52.446;10.840;2022-12-13T12:36:34;-0.90;85.90
31309;DHT22;17936;52.446;10.840;2022-12-13T12:39:09;-0.80;91.80
31309;DHT22;17936;52.446;10.840;2022-12-13T12:50:29;-0.90;92.60
31309;DHT22;17936;52.446;10.840;2022-12-13T12:58:29;-0.90;94.40
31309;DHT22;17936;52.446;10.840;2022-12-13T13:03:40;-1.00;93.70
31309;DHT22;17936;52.446;10.840;2022-12-13T13:06:29;-1.00;93.80
31309;DHT22;17936;52.446;10.840;2022-12-13T13:09:06;-1.10;93.60
31309;DHT22;17936;52.446;10.840;2022-12-13T13:11:37;-1.10;93.20
31309;DHT22;17936;52.446;10.840;2022-12-13T13:14:32;-1.00;94.40
31309;DHT22;17936;52.446;10.840;2022-12-13T13:17:02;-1.00;96.00
31309;DHT22;17936;52.446;10.840;2022-12-13T13:19:49;-1.00;94.80
31309;DHT22;17936;52.446;10.840;2022-12-13T13:22:29;-1.00;95.90
31309;DHT22;17936;52.446;10.840;2022-12-13T13:25:19;-1.00;95.50
31309;DHT22;17936;52.446;10.840;2022-12-13T13:27:46;-0.90;96.00
31309;DHT22;17936;52.446;10.840;2022-12-13T13:30:24;-0.90;94.10
31309;DHT22;17936;52.446;10.840;2022-12-13T13:32:52;-1.00;93.70
31309;DHT22;17936;52.446;10.840;2022-12-13T13:40:37;-0.60;99.50
31309;DHT22;17936;52.446;10.840;2022-12-13T13:48:46;-0.60;90.80
31309;DHT22;17936;52.446;10.840;2022-12-13T13:52:14;-0.60;90.60
31309;DHT22;17936;52.446;10.840;2022-12-13T13:55:21;-0.60;93.00
31309;DHT22;17936;52.446;10.840;2022-12-13T13:58:26;-0.90;88.50
31309;DHT22;17936;52.446;10.840;2022-12-13T14:10:03;-0.90;93.20
31309;DHT22;17936;52.446;10.840;2022-12-13T14:15:47;-0.70;98.10
31309;DHT22;17936;52.446;10.840;2022-12-13T14:21:42;-1.00;99.70
31309;DHT22;17936;52.446;10.840;2022-12-13T14:27:19;-1.00;95.10
31309;DHT22;17936;52.446;10.840;2022-12-13T14:29:46;-1.10;97.00
31309;DHT22;17936;52.446;10.840;2022-12-13T14:32:20;-1.10;97.30
31309;DHT22;17936;52.446;10.840;2022-12-13T14:34:46;-0.90;99.90
31309;DHT22;17936;52.446;10.840;2022-12-13T14:37:25;-1.00;98.70
31309;DHT22;17936;52.446;10.840;2022-12-13T14:39:55;-0.80;97.70
31309;DHT22;17936;52.446;10.840;2022-12-13T14:42:28;-1.00;96.80
31309;DHT22;17936;52.446;10.840;2022-12-13T14:44:55;-1.10;98.00
31309;DHT22;17936;52.446;10.840;2022-12-13T14:47:42;-1.20;97.50
31309;DHT22;17936;52.446;10.840;2022-12-13T14:50:07;-1.30;99.00
31309;DHT22;17936;52.446;10.840;2022-12-13T14:52:37;-1.40;99.90
31309;DHT22;17936;52.446;10.840;2022-12-13T14:55:04;-1.20;99.90
31309;DHT22;17936;52.446;10.840;2022-12-13T14:57:32;-1.40;99.20
31309;DHT22;17936;52.446;10.840;2022-12-13T15:00:00;-1.40;99.90
31309;DHT22;17936;52.446;10.840;2022-12-13T15:02:31;-1.70;99.90
31309;DHT22;17936;52.446;10.840;2022-12-13T15:05:03;-1.60;90.80
31309;DHT22;17936;52.446;10.840;2022-12-13T15:07:37;-1.60;75.70
31309;DHT22;17936;52.446;10.840;2022-12-13T15:12:59;-1.70;1.00
31309;DHT22;17936;52.446;10.840;2022-12-13T15:15:29;-2.00;1.00
31309;DHT22;17936;52.446;10.840;2022-12-13T15:18:18;-2.00;1.00
31309;DHT22;17936;52.446;10.840;2022-12-13T15:20:46;-2.00;1.00
31309;DHT22;17936;52.446;10.840;2022-12-13T15:23:35;-2.00;1.00
31309;DHT22;17936;52.446;10.840;2022-12-13T15:26:14;-2.10;1.00
31309;DHT22;17936;52.446;10.840;2022-12-13T15:28:46;-2.30;1.00
31309;DHT22;17936;52.446;10.840;2022-12-13T15:31:13;-2.40;1.00
31309;DHT22;17936;52.446;10.840;2022-12-13T15:33:39;-2.40;1.00
31309;DHT22;17936;52.446;10.840;2022-12-13T15:36:15;-2.40;1.00
31309;DHT22;17936;52.446;10.840;2022-12-13T15:39:10;-2.60;1.00
31309;DHT22;17936;52.446;10.840;2022-12-13T15:41:44;-2.70;1.00
31309;DHT22;17936;52.446;10.840;2022-12-13T15:44:27;-2.60;5.40
31309;DHT22;17936;52.446;10.840;2022-12-13T15:47:04;-2.30;46.50
31309;DHT22;17936;52.446;10.840;2022-12-13T15:49:40;-2.40;31.50
31309;DHT22;17936;52.446;10.840;2022-12-13T15:54:41;-2.90;4.40
31309;DHT22;17936;52.446;10.840;2022-12-13T15:57:13;-3.00;10.80
31309;DHT22;17936;52.446;10.840;2022-12-13T15:59:41;-3.00;23.50
31309;DHT22;17936;52.446;10.840;2022-12-13T16:02:22;-3.00;34.20
31309;DHT22;17936;52.446;10.840;2022-12-13T16:04:49;-3.00;45.50
31309;DHT22;17936;52.446;10.840;2022-12-13T16:07:24;-3.00;52.80
31309;DHT22;17936;52.446;10.840;2022-12-13T16:09:52;-3.10;36.50
31309;DHT22;17936;52.446;10.840;2022-12-13T16:12:25;-3.20;38.10
31309;DHT22;17936;52.446;10.840;2022-12-13T16:15:10;-3.20;43.90
31309;DHT22;17936;52.446;10.840;2022-12-13T16:17:39;-3.30;34.20
31309;DHT22;17936;52.446;10.840;2022-12-13T16:20:11;-3.30;40.50
31309;DHT22;17936;52.446;10.840;2022-12-13T16:22:38;-3.20;41.50
31309;DHT22;17936;52.446;10.840;2022-12-13T16:25:03;-3.30;39.80
31309;DHT22;17936;52.446;10.840;2022-12-13T16:27:29;-3.50;40.80
31309;DHT22;17936;52.446;10.840;2022-12-13T16:29:55;-3.50;48.90
31309;DHT22;17936;52.446;10.840;2022-12-13T16:32:21;-3.70;47.20
31309;DHT22;17936;52.446;10.840;2022-12-13T16:34:46;-3.80;74.90
31309;DHT22;17936;52.446;10.840;2022-12-13T16:37:12;-3.70;93.60
31309;DHT22;17936;52.446;10.840;2022-12-13T16:39:37;-3.70;91.20
31309;DHT22;17936;52.446;10.840;2022-12-13T16:42:03;-3.70;91.40
31309;DHT22;17936;52.446;10.840;2022-12-13T16:44:34;-3.70;92.20
31309;DHT22;17936;52.446;10.840;2022-12-13T16:47:00;-3.60;88.20
31309;DHT22;17936;52.446;10.840;2022-12-13T16:49:28;-3.70;75.30
31309;DHT22;17936;52.446;10.840;2022-12-13T16:51:55;-3.80;65.40
31309;DHT22;17936;52.446;10.840;2022-12-13T16:54:22;-3.80;62.40
31309;DHT22;17936;52.446;10.840;2022-12-13T16:56:49;-3.80;65.00
31309;DHT22;17936;52.446;10.840;2022-12-13T16:59:20;-3.80;66.60
31309;DHT22;17936;52.446;10.840;2022-12-13T17:01:46;-3.90;58.80
31309;DHT22;17936;52.446;10.840;2022-12-13T17:04:14;-4.00;78.90